sensor_id;sensor_type;location;lat;lon;timestamp;temperature;humidity
68746;SHT31;73143;45.456;11.064;2024-01-15T00:00:18;3.99;81.68
68746;SHT31;73143;45.456;11.064;2024-01-15T00:02:57;4.00;81.67
68746;SHT31;73143;45.456;11.064;2024-01-15T00:05:34;3.99;81.63
68746;SHT31;73143;45.456;11.064;2024-01-15T00:08:11;4.01;81.66
68746;SHT31;73143;45.456;11.064;2024-01-15T00:10:49;4.01;81.60
68746;SHT31;73143;45.456;11.064;2024-01-15T00:13:27;4.00;81.57
68746;SHT31;73143;45.456;11.064;2024-01-15T00:16:06;3.93;81.70
68746;SHT31;73143;45.456;11.064;2024-01-15T00:18:44;3.91;81.87
68746;SHT31;73143;45.456;11.064;2024-01-15T00:21:21;3.92;81.93
68746;SHT31;73143;45.456;11.064;2024-01-15T00:23:59;3.93;81.92
68746;SHT31;73143;45.456;11.064;2024-01-15T00:26:39;3.92;81.96
68746;SHT31;73143;45.456;11.064;2024-01-15T00:29:16;3.92;82.00
68746;SHT31;73143;45.456;11.064;2024-01-15T00:31:54;3.95;81.99
68746;SHT31;73143;45.456;11.064;2024-01-15T00:34:30;3.97;81.90
68746;SHT31;73143;45.456;11.064;2024-01-15T00:37:08;3.98;81.89
68746;SHT31;73143;45.456;11.064;2024-01-15T00:39:46;4.01;81.85
68746;SHT31;73143;45.456;11.064;2024-01-15T00:42:24;4.01;81.86
68746;SHT31;73143;45.456;11.064;2024-01-15T00:45:02;4.02;81.83
68746;SHT31;73143;45.456;11.064;2024-01-15T00:47:42;4.02;81.80
68746;SHT31;73143;45.456;11.064;2024-01-15T00:50:21;4.02;81.80
68746;SHT31;73143;45.456;11.064;2024-01-15T00:52:59;4.01;81.80
68746;SHT31;73143;45.456;11.064;2024-01-15T00:55:37;3.99;81.86
68746;SHT31;73143;45.456;11.064;2024-01-15T00:58:15;3.97;81.92
68746;SHT31;73143;45.456;11.064;2024-01-15T01:00:54;3.95;82.00
68746;SHT31;73143;45.456;11.064;2024-01-15T01:03:31;3.93;82.00
68746;SHT31;73143;45.456;11.064;2024-01-15T01:06:10;3.88;82.08
68746;SHT31;73143;45.456;11.064;2024-01-15T01:08:47;3.84;82.22
68746;SHT31;73143;45.456;11.064;2024-01-15T01:11:26;3.82;82.39
68746;SHT31;73143;45.456;11.064;2024-01-15T01:14:03;3.86;82.50
68746;SHT31;73143;45.456;11.064;2024-01-15T01:16:42;3.88;82.39
68746;SHT31;73143;45.456;11.064;2024-01-15T01:19:20;3.90;82.34
68746;SHT31;73143;45.456;11.064;2024-01-15T01:21:58;3.92;82.33
68746;SHT31;73143;45.456;11.064;2024-01-15T01:24:35;3.94;82.25
68746;SHT31;73143;45.456;11.064;2024-01-15T01:27:11;3.96;82.25
68746;SHT31;73143;45.456;11.064;2024-01-15T01:29:49;3.97;82.21
68746;SHT31;73143;45.456;11.064;2024-01-15T01:32:26;3.95;82.22
68746;SHT31;73143;45.456;11.064;2024-01-15T01:35:05;3.91;82.38
68746;SHT31;73143;45.456;11.064;2024-01-15T01:37:43;3.93;82.47
68746;SHT31;73143;45.456;11.064;2024-01-15T01:40:22;3.94;82.39
68746;SHT31;73143;45.456;11.064;2024-01-15T01:42:59;3.94;82.31
68746;SHT31;73143;45.456;11.064;2024-01-15T01:45:40;3.95;82.20
68746;SHT31;73143;45.456;11.064;2024-01-15T01:48:17;3.94;82.06
68746;SHT31;73143;45.456;11.064;2024-01-15T01:50:57;3.93;81.99
68746;SHT31;73143;45.456;11.064;2024-01-15T01:53:37;3.90;82.01
68746;SHT31;73143;45.456;11.064;2024-01-15T01:56:16;3.90;81.96
68746;SHT31;73143;45.456;11.064;2024-01-15T01:58:55;3.90;81.83
68746;SHT31;73143;45.456;11.064;2024-01-15T02:01:33;3.90;81.80
68746;SHT31;73143;45.456;11.064;2024-01-15T02:04:11;3.90;81.74
68746;SHT31;73143;45.456;11.064;2024-01-15T02:06:50;3.90;81.61
68746;SHT31;73143;45.456;11.064;2024-01-15T02:09:27;3.89;81.55
68746;SHT31;73143;45.456;11.064;2024-01-15T02:12:07;3.86;81.43
68746;SHT31;73143;45.456;11.064;2024-01-15T02:14:48;3.83;81.46
68746;SHT31;73143;45.456;11.064;2024-01-15T02:17:25;3.82;81.40
68746;SHT31;73143;45.456;11.064;2024-01-15T02:20:08;3.80;81.44
68746;SHT31;73143;45.456;11.064;2024-01-15T02:22:52;3.80;81.46
68746;SHT31;73143;45.456;11.064;2024-01-15T02:25:36;3.79;81.40
68746;SHT31;73143;45.456;11.064;2024-01-15T02:28:16;3.79;81.30
68746;SHT31;73143;45.456;11.064;2024-01-15T02:30:52;3.77;81.33
68746;SHT31;73143;45.456;11.064;2024-01-15T02:33:30;3.75;81.32
68746;SHT31;73143;45.456;11.064;2024-01-15T02:36:09;3.72;81.41
68746;SHT31;73143;45.456;11.064;2024-01-15T02:38:48;3.72;81.37
68746;SHT31;73143;45.456;11.064;2024-01-15T02:41:25;3.70;81.40
68746;SHT31;73143;45.456;11.064;2024-01-15T02:44:02;3.70;81.42
68746;SHT31;73143;45.456;11.064;2024-01-15T02:46:39;3.69;81.38
68746;SHT31;73143;45.456;11.064;2024-01-15T02:49:17;3.67;81.37
68746;SHT31;73143;45.456;11.064;2024-01-15T02:51:55;3.64;81.30
68746;SHT31;73143;45.456;11.064;2024-01-15T02:54:35;3.62;81.41
68746;SHT31;73143;45.456;11.064;2024-01-15T02:57:13;3.59;81.62
68746;SHT31;73143;45.456;11.064;2024-01-15T02:59:50;3.53;81.62
68746;SHT31;73143;45.456;11.064;2024-01-15T03:02:28;3.50;81.65
68746;SHT31;73143;45.456;11.064;2024-01-15T03:05:14;3.48;81.70
68746;SHT31;73143;45.456;11.064;2024-01-15T03:07:55;3.48;81.78
68746;SHT31;73143;45.456;11.064;2024-01-15T03:10:32;3.50;81.88
68746;SHT31;73143;45.456;11.064;2024-01-15T03:13:09;3.49;81.65
68746;SHT31;73143;45.456;11.064;2024-01-15T03:15:46;3.46;81.64
68746;SHT31;73143;45.456;11.064;2024-01-15T03:18:23;3.45;81.56
68746;SHT31;73143;45.456;11.064;2024-01-15T03:21:00;3.42;81.53
68746;SHT31;73143;45.456;11.064;2024-01-15T03:23:44;3.39;81.54
68746;SHT31;73143;45.456;11.064;2024-01-15T03:26:22;3.38;81.63
68746;SHT31;73143;45.456;11.064;2024-01-15T03:28:59;3.38;81.62
68746;SHT31;73143;45.456;11.064;2024-01-15T03:31:37;3.36;81.61
68746;SHT31;73143;45.456;11.064;2024-01-15T03:34:14;3.34;81.71
68746;SHT31;73143;45.456;11.064;2024-01-15T03:36:52;3.31;81.74
68746;SHT31;73143;45.456;11.064;2024-01-15T03:39:30;3.25;81.93
68746;SHT31;73143;45.456;11.064;2024-01-15T03:42:08;3.25;82.21
68746;SHT31;73143;45.456;11.064;2024-01-15T03:44:45;3.26;82.23
68746;SHT31;73143;45.456;11.064;2024-01-15T03:47:22;3.25;82.30
68746;SHT31;73143;45.456;11.064;2024-01-15T03:50:00;3.27;82.45
68746;SHT31;73143;45.456;11.064;2024-01-15T03:52:39;3.32;82.33
68746;SHT31;73143;45.456;11.064;2024-01-15T03:55:16;3.34;82.01
68746;SHT31;73143;45.456;11.064;2024-01-15T03:57:54;3.31;81.81
68746;SHT31;73143;45.456;11.064;2024-01-15T04:00:32;3.29;81.74
68746;SHT31;73143;45.456;11.064;2024-01-15T04:03:10;3.29;81.79
68746;SHT31;73143;45.456;11.064;2024-01-15T04:05:48;3.31;81.59
68746;SHT31;73143;45.456;11.064;2024-01-15T04:08:26;3.29;81.35
68746;SHT31;73143;45.456;11.064;2024-01-15T04:11:04;3.26;81.31
68746;SHT31;73143;45.456;11.064;2024-01-15T04:13:41;3.26;81.33
68746;SHT31;73143;45.456;11.064;2024-01-15T04:16:19;3.25;81.36
68746;SHT31;73143;45.456;11.064;2024-01-15T04:18:56;3.23;81.54
68746;SHT31;73143;45.456;11.064;2024-01-15T04:21:34;3.24;81.69
68746;SHT31;73143;45.456;11.064;2024-01-15T04:24:11;3.25;81.76
68746;SHT31;73143;45.456;11.064;2024-01-15T04:26:49;3.25;81.76
68746;SHT31;73143;45.456;11.064;2024-01-15T04:29:30;3.26;81.87
68746;SHT31;73143;45.456;11.064;2024-01-15T04:32:09;3.28;81.79
68746;SHT31;73143;45.456;11.064;2024-01-15T04:34:46;3.26;81.73
68746;SHT31;73143;45.456;11.064;2024-01-15T04:37:24;3.24;81.78
68746;SHT31;73143;45.456;11.064;2024-01-15T04:40:03;3.21;81.72
68746;SHT31;73143;45.456;11.064;2024-01-15T04:42:44;3.20;81.75
68746;SHT31;73143;45.456;11.064;2024-01-15T04:45:22;3.18;81.56
68746;SHT31;73143;45.456;11.064;2024-01-15T04:47:59;3.17;81.57
68746;SHT31;73143;45.456;11.064;2024-01-15T04:50:38;3.18;81.48
68746;SHT31;73143;45.456;11.064;2024-01-15T04:53:15;3.17;81.45
68746;SHT31;73143;45.456;11.064;2024-01-15T04:55:51;3.19;81.49
68746;SHT31;73143;45.456;11.064;2024-01-15T04:58:29;3.18;81.45
68746;SHT31;73143;45.456;11.064;2024-01-15T05:01:09;3.17;81.59
68746;SHT31;73143;45.456;11.064;2024-01-15T05:03:46;3.20;81.61
68746;SHT31;73143;45.456;11.064;2024-01-15T05:06:27;3.22;81.60
68746;SHT31;73143;45.456;11.064;2024-01-15T05:09:06;3.23;81.57
68746;SHT31;73143;45.456;11.064;2024-01-15T05:11:44;3.27;81.45
68746;SHT31;73143;45.456;11.064;2024-01-15T05:14:21;3.29;81.40
68746;SHT31;73143;45.456;11.064;2024-01-15T05:16:59;3.28;81.29
68746;SHT31;73143;45.456;11.064;2024-01-15T05:19:39;3.26;81.33
68746;SHT31;73143;45.456;11.064;2024-01-15T05:22:17;3.27;81.36
68746;SHT31;73143;45.456;11.064;2024-01-15T05:24:55;3.28;81.16
68746;SHT31;73143;45.456;11.064;2024-01-15T05:27:33;3.27;81.08
68746;SHT31;73143;45.456;11.064;2024-01-15T05:30:11;3.26;81.04
68746;SHT31;73143;45.456;11.064;2024-01-15T05:32:51;3.24;81.08
68746;SHT31;73143;45.456;11.064;2024-01-15T05:35:29;3.22;81.04
68746;SHT31;73143;45.456;11.064;2024-01-15T05:38:08;3.21;81.05
68746;SHT31;73143;45.456;11.064;2024-01-15T05:40:46;3.19;81.06
68746;SHT31;73143;45.456;11.064;2024-01-15T05:43:24;3.17;81.00
68746;SHT31;73143;45.456;11.064;2024-01-15T05:46:01;3.15;81.05
68746;SHT31;73143;45.456;11.064;2024-01-15T05:48:38;3.11;80.94
68746;SHT31;73143;45.456;11.064;2024-01-15T05:51:15;3.05;80.90
68746;SHT31;73143;45.456;11.064;2024-01-15T05:53:51;3.00;80.71
68746;SHT31;73143;45.456;11.064;2024-01-15T05:56:28;2.92;80.47
68746;SHT31;73143;45.456;11.064;2024-01-15T05:59:05;2.85;80.42
68746;SHT31;73143;45.456;11.064;2024-01-15T06:01:43;2.80;80.59
68746;SHT31;73143;45.456;11.064;2024-01-15T06:04:22;2.81;80.79
68746;SHT31;73143;45.456;11.064;2024-01-15T06:07:00;2.82;80.73
68746;SHT31;73143;45.456;11.064;2024-01-15T06:09:39;2.84;80.68
68746;SHT31;73143;45.456;11.064;2024-01-15T06:12:17;2.85;80.72
68746;SHT31;73143;45.456;11.064;2024-01-15T06:14:55;2.86;80.70
68746;SHT31;73143;45.456;11.064;2024-01-15T06:17:34;2.87;80.70
68746;SHT31;73143;45.456;11.064;2024-01-15T06:20:13;2.86;80.65
68746;SHT31;73143;45.456;11.064;2024-01-15T06:22:51;2.85;80.71
68746;SHT31;73143;45.456;11.064;2024-01-15T06:25:27;2.85;80.71
68746;SHT31;73143;45.456;11.064;2024-01-15T06:28:06;2.86;80.66
68746;SHT31;73143;45.456;11.064;2024-01-15T06:30:44;2.87;80.58
68746;SHT31;73143;45.456;11.064;2024-01-15T06:33:22;2.88;80.49
68746;SHT31;73143;45.456;11.064;2024-01-15T06:35:59;2.90;80.46
68746;SHT31;73143;45.456;11.064;2024-01-15T06:38:40;2.90;80.49
68746;SHT31;73143;45.456;11.064;2024-01-15T06:41:18;2.88;80.40
68746;SHT31;73143;45.456;11.064;2024-01-15T06:43:55;2.86;80.44
68746;SHT31;73143;45.456;11.064;2024-01-15T06:46:34;2.84;80.53
68746;SHT31;73143;45.456;11.064;2024-01-15T06:49:20;2.86;80.61
68746;SHT31;73143;45.456;11.064;2024-01-15T06:51:57;2.88;80.71
68746;SHT31;73143;45.456;11.064;2024-01-15T06:54:35;2.92;80.75
68746;SHT31;73143;45.456;11.064;2024-01-15T06:57:12;2.95;80.60
68746;SHT31;73143;45.456;11.064;2024-01-15T06:59:50;2.97;80.52
68746;SHT31;73143;45.456;11.064;2024-01-15T07:02:27;2.99;80.44
68746;SHT31;73143;45.456;11.064;2024-01-15T07:05:05;3.00;80.35
68746;SHT31;73143;45.456;11.064;2024-01-15T07:07:44;3.00;80.37
68746;SHT31;73143;45.456;11.064;2024-01-15T07:10:22;3.02;80.34
68746;SHT31;73143;45.456;11.064;2024-01-15T07:13:05;3.03;80.14
68746;SHT31;73143;45.456;11.064;2024-01-15T07:15:42;3.01;80.17
68746;SHT31;73143;45.456;11.064;2024-01-15T07:18:20;3.02;80.36
68746;SHT31;73143;45.456;11.064;2024-01-15T07:20:58;3.03;80.57
68746;SHT31;73143;45.456;11.064;2024-01-15T07:23:36;3.03;80.39
68746;SHT31;73143;45.456;11.064;2024-01-15T07:26:13;3.03;80.41
68746;SHT31;73143;45.456;11.064;2024-01-15T07:28:50;3.05;80.23
68746;SHT31;73143;45.456;11.064;2024-01-15T07:31:28;3.08;79.99
68746;SHT31;73143;45.456;11.064;2024-01-15T07:34:05;3.09;79.84
68746;SHT31;73143;45.456;11.064;2024-01-15T07:36:43;3.08;79.79
68746;SHT31;73143;45.456;11.064;2024-01-15T07:39:20;3.08;79.90
68746;SHT31;73143;45.456;11.064;2024-01-15T07:42:00;3.12;79.80
68746;SHT31;73143;45.456;11.064;2024-01-15T07:44:38;3.15;79.55
68746;SHT31;73143;45.456;11.064;2024-01-15T07:47:15;3.18;79.54
68746;SHT31;73143;45.456;11.064;2024-01-15T07:49:52;3.20;79.60
68746;SHT31;73143;45.456;11.064;2024-01-15T07:52:34;3.22;79.60
68746;SHT31;73143;45.456;11.064;2024-01-15T07:55:13;3.24;79.42
68746;SHT31;73143;45.456;11.064;2024-01-15T07:57:51;3.23;79.40
68746;SHT31;73143;45.456;11.064;2024-01-15T08:00:43;3.23;79.48
68746;SHT31;73143;45.456;11.064;2024-01-15T08:03:21;3.23;79.54
68746;SHT31;73143;45.456;11.064;2024-01-15T08:05:59;3.23;79.63
68746;SHT31;73143;45.456;11.064;2024-01-15T08:08:39;3.22;79.81
68746;SHT31;73143;45.456;11.064;2024-01-15T08:11:16;3.25;79.91
68746;SHT31;73143;45.456;11.064;2024-01-15T08:13:53;3.28;80.01
68746;SHT31;73143;45.456;11.064;2024-01-15T08:16:32;3.34;80.10
68746;SHT31;73143;45.456;11.064;2024-01-15T08:19:10;3.40;80.11
68746;SHT31;73143;45.456;11.064;2024-01-15T08:21:50;3.48;80.00
68746;SHT31;73143;45.456;11.064;2024-01-15T08:24:28;3.56;79.75
68746;SHT31;73143;45.456;11.064;2024-01-15T08:27:06;3.64;79.63
68746;SHT31;73143;45.456;11.064;2024-01-15T08:29:43;3.72;79.48
68746;SHT31;73143;45.456;11.064;2024-01-15T08:32:21;3.75;79.27
68746;SHT31;73143;45.456;11.064;2024-01-15T08:34:58;3.74;79.29
68746;SHT31;73143;45.456;11.064;2024-01-15T08:37:39;3.75;79.48
68746;SHT31;73143;45.456;11.064;2024-01-15T08:40:16;3.76;79.31
68746;SHT31;73143;45.456;11.064;2024-01-15T08:42:53;3.78;79.35
68746;SHT31;73143;45.456;11.064;2024-01-15T08:45:31;3.80;79.40
68746;SHT31;73143;45.456;11.064;2024-01-15T08:48:08;3.82;79.40
68746;SHT31;73143;45.456;11.064;2024-01-15T08:50:49;3.84;79.24
68746;SHT31;73143;45.456;11.064;2024-01-15T08:53:26;3.86;79.28
68746;SHT31;73143;45.456;11.064;2024-01-15T08:56:03;3.87;79.29
68746;SHT31;73143;45.456;11.064;2024-01-15T08:58:42;3.87;79.35
68746;SHT31;73143;45.456;11.064;2024-01-15T09:01:21;3.86;79.51
68746;SHT31;73143;45.456;11.064;2024-01-15T09:03:58;3.87;79.65
68746;SHT31;73143;45.456;11.064;2024-01-15T09:06:36;3.96;79.73
68746;SHT31;73143;45.456;11.064;2024-01-15T09:09:13;4.05;79.70
68746;SHT31;73143;45.456;11.064;2024-01-15T09:11:50;4.12;79.43
68746;SHT31;73143;45.456;11.064;2024-01-15T09:14:27;4.13;79.14
68746;SHT31;73143;45.456;11.064;2024-01-15T09:17:06;4.14;78.90
68746;SHT31;73143;45.456;11.064;2024-01-15T09:19:43;4.14;79.19
68746;SHT31;73143;45.456;11.064;2024-01-15T09:22:21;4.14;79.30
68746;SHT31;73143;45.456;11.064;2024-01-15T09:24:59;4.16;79.26
68746;SHT31;73143;45.456;11.064;2024-01-15T09:27:39;4.19;79.32
68746;SHT31;73143;45.456;11.064;2024-01-15T09:30:16;4.20;79.40
68746;SHT31;73143;45.456;11.064;2024-01-15T09:32:54;4.24;79.26
68746;SHT31;73143;45.456;11.064;2024-01-15T09:35:31;4.27;79.15
68746;SHT31;73143;45.456;11.064;2024-01-15T09:38:09;4.30;79.03
68746;SHT31;73143;45.456;11.064;2024-01-15T09:40:47;4.32;78.95
68746;SHT31;73143;45.456;11.064;2024-01-15T09:43:26;4.36;79.01
68746;SHT31;73143;45.456;11.064;2024-01-15T09:46:04;4.43;79.16
68746;SHT31;73143;45.456;11.064;2024-01-15T09:48:41;4.50;79.17
68746;SHT31;73143;45.456;11.064;2024-01-15T09:51:19;4.56;79.05
68746;SHT31;73143;45.456;11.064;2024-01-15T09:53:57;4.63;78.57
68746;SHT31;73143;45.456;11.064;2024-01-15T09:56:35;4.71;77.72
68746;SHT31;73143;45.456;11.064;2024-01-15T09:59:14;4.80;77.30
68746;SHT31;73143;45.456;11.064;2024-01-15T10:01:54;4.87;76.93
68746;SHT31;73143;45.456;11.064;2024-01-15T10:04:36;4.95;76.52
68746;SHT31;73143;45.456;11.064;2024-01-15T10:07:15;5.03;76.14
68746;SHT31;73143;45.456;11.064;2024-01-15T10:09:53;5.10;75.98
68746;SHT31;73143;45.456;11.064;2024-01-15T10:12:31;5.19;75.67
68746;SHT31;73143;45.456;11.064;2024-01-15T10:15:11;5.28;75.42
68746;SHT31;73143;45.456;11.064;2024-01-15T10:17:51;5.36;74.78
68746;SHT31;73143;45.456;11.064;2024-01-15T10:20:29;5.45;74.33
68746;SHT31;73143;45.456;11.064;2024-01-15T10:23:08;5.54;73.86
68746;SHT31;73143;45.456;11.064;2024-01-15T10:25:46;5.56;73.90
68746;SHT31;73143;45.456;11.064;2024-01-15T10:28:22;5.57;73.63
68746;SHT31;73143;45.456;11.064;2024-01-15T10:31:02;5.57;73.69
68746;SHT31;73143;45.456;11.064;2024-01-15T10:33:38;5.61;73.89
68746;SHT31;73143;45.456;11.064;2024-01-15T10:36:16;5.69;73.94
68746;SHT31;73143;45.456;11.064;2024-01-15T10:38:53;5.76;73.89
68746;SHT31;73143;45.456;11.064;2024-01-15T10:41:34;5.84;73.80
68746;SHT31;73143;45.456;11.064;2024-01-15T10:44:10;5.87;73.64
68746;SHT31;73143;45.456;11.064;2024-01-15T10:46:48;5.87;73.40
68746;SHT31;73143;45.456;11.064;2024-01-15T10:49:27;5.88;73.56
68746;SHT31;73143;45.456;11.064;2024-01-15T10:52:06;5.93;73.60
68746;SHT31;73143;45.456;11.064;2024-01-15T10:54:43;5.96;73.59
68746;SHT31;73143;45.456;11.064;2024-01-15T10:57:24;5.98;73.49
68746;SHT31;73143;45.456;11.064;2024-01-15T11:00:06;6.00;73.44
68746;SHT31;73143;45.456;11.064;2024-01-15T11:02:49;6.02;73.37
68746;SHT31;73143;45.456;11.064;2024-01-15T11:05:27;6.05;73.22
68746;SHT31;73143;45.456;11.064;2024-01-15T11:08:08;6.08;73.31
68746;SHT31;73143;45.456;11.064;2024-01-15T11:10:50;6.11;73.25
68746;SHT31;73143;45.456;11.064;2024-01-15T11:16:21;6.19;73.12
68746;SHT31;73143;45.456;11.064;2024-01-15T11:19:38;6.22;73.07
68746;SHT31;73143;45.456;11.064;2024-01-15T11:25:28;6.28;72.84
68746;SHT31;73143;45.456;11.064;2024-01-15T11:28:12;6.30;72.61
68746;SHT31;73143;45.456;11.064;2024-01-15T11:31:21;6.32;72.49
68746;SHT31;73143;45.456;11.064;2024-01-15T11:34:49;6.35;72.44
68746;SHT31;73143;45.456;11.064;2024-01-15T11:40:38;6.41;71.94
68746;SHT31;73143;45.456;11.064;2024-01-15T11:43:18;6.43;71.89
68746;SHT31;73143;45.456;11.064;2024-01-15T11:45:55;6.46;71.90
68746;SHT31;73143;45.456;11.064;2024-01-15T11:48:38;6.50;71.82
68746;SHT31;73143;45.456;11.064;2024-01-15T11:51:24;6.59;71.59
68746;SHT31;73143;45.456;11.064;2024-01-15T11:54:03;6.72;70.83
68746;SHT31;73143;45.456;11.064;2024-01-15T11:56:45;6.86;70.49
68746;SHT31;73143;45.456;11.064;2024-01-15T11:59:24;7.03;70.22
68746;SHT31;73143;45.456;11.064;2024-01-15T12:02:00;7.19;69.85
68746;SHT31;73143;45.456;11.064;2024-01-15T12:04:37;7.36;69.10
68746;SHT31;73143;45.456;11.064;2024-01-15T12:07:13;7.54;69.04
68746;SHT31;73143;45.456;11.064;2024-01-15T12:09:50;7.70;68.83
68746;SHT31;73143;45.456;11.064;2024-01-15T12:12:29;7.77;67.72
68746;SHT31;73143;45.456;11.064;2024-01-15T12:15:18;7.80;68.35
68746;SHT31;73143;45.456;11.064;2024-01-15T12:17:57;7.88;68.50
68746;SHT31;73143;45.456;11.064;2024-01-15T12:20:34;7.96;68.07
68746;SHT31;73143;45.456;11.064;2024-01-15T12:23:12;8.05;68.02
68746;SHT31;73143;45.456;11.064;2024-01-15T12:25:49;8.13;68.02
68746;SHT31;73143;45.456;11.064;2024-01-15T12:28:27;8.17;68.02
68746;SHT31;73143;45.456;11.064;2024-01-15T12:31:05;8.22;67.80
68746;SHT31;73143;45.456;11.064;2024-01-15T12:33:43;8.28;67.55
68746;SHT31;73143;45.456;11.064;2024-01-15T12:36:22;8.31;67.61
68746;SHT31;73143;45.456;11.064;2024-01-15T12:39:02;8.38;67.73
68746;SHT31;73143;45.456;11.064;2024-01-15T12:41:41;8.42;67.50
68746;SHT31;73143;45.456;11.064;2024-01-15T12:44:19;8.45;67.13
68746;SHT31;73143;45.456;11.064;2024-01-15T12:46:56;8.46;66.88
68746;SHT31;73143;45.456;11.064;2024-01-15T12:49:37;8.51;66.47
68746;SHT31;73143;45.456;11.064;2024-01-15T12:52:13;8.51;66.61
68746;SHT31;73143;45.456;11.064;2024-01-15T12:54:53;8.54;66.42
68746;SHT31;73143;45.456;11.064;2024-01-15T12:57:29;8.58;66.51
68746;SHT31;73143;45.456;11.064;2024-01-15T13:00:09;8.63;66.57
68746;SHT31;73143;45.456;11.064;2024-01-15T13:02:51;8.69;66.38
68746;SHT31;73143;45.456;11.064;2024-01-15T13:05:29;8.71;66.30
68746;SHT31;73143;45.456;11.064;2024-01-15T13:08:07;8.77;66.28
68746;SHT31;73143;45.456;11.064;2024-01-15T13:10:44;8.82;66.12
68746;SHT31;73143;45.456;11.064;2024-01-15T13:13:22;8.85;66.04
68746;SHT31;73143;45.456;11.064;2024-01-15T13:15:59;8.84;66.30
68746;SHT31;73143;45.456;11.064;2024-01-15T13:18:37;8.82;66.63
68746;SHT31;73143;45.456;11.064;2024-01-15T13:21:15;8.81;66.87
68746;SHT31;73143;45.456;11.064;2024-01-15T13:23:52;8.79;66.79
68746;SHT31;73143;45.456;11.064;2024-01-15T13:26:30;8.77;67.28
68746;SHT31;73143;45.456;11.064;2024-01-15T13:29:06;8.76;67.77
68746;SHT31;73143;45.456;11.064;2024-01-15T13:31:43;8.77;68.04
68746;SHT31;73143;45.456;11.064;2024-01-15T13:34:20;8.77;67.94
68746;SHT31;73143;45.456;11.064;2024-01-15T13:36:58;8.76;68.10
68746;SHT31;73143;45.456;11.064;2024-01-15T13:39:39;8.77;67.95
68746;SHT31;73143;45.456;11.064;2024-01-15T13:42:17;8.75;67.97
68746;SHT31;73143;45.456;11.064;2024-01-15T13:44:57;8.72;67.86
68746;SHT31;73143;45.456;11.064;2024-01-15T13:47:35;8.67;67.86
68746;SHT31;73143;45.456;11.064;2024-01-15T13:50:13;8.65;68.01
68746;SHT31;73143;45.456;11.064;2024-01-15T13:52:53;8.64;67.99
68746;SHT31;73143;45.456;11.064;2024-01-15T13:55:31;8.63;67.86
68746;SHT31;73143;45.456;11.064;2024-01-15T13:58:09;8.60;67.87
68746;SHT31;73143;45.456;11.064;2024-01-15T14:00:47;8.56;67.96
68746;SHT31;73143;45.456;11.064;2024-01-15T14:03:25;8.56;67.92
68746;SHT31;73143;45.456;11.064;2024-01-15T14:06:03;8.56;67.90
68746;SHT31;73143;45.456;11.064;2024-01-15T14:08:40;8.55;68.05
68746;SHT31;73143;45.456;11.064;2024-01-15T14:11:17;8.55;68.15
68746;SHT31;73143;45.456;11.064;2024-01-15T14:13:54;8.51;68.36
68746;SHT31;73143;45.456;11.064;2024-01-15T14:16:31;8.49;68.51
68746;SHT31;73143;45.456;11.064;2024-01-15T14:19:08;8.47;68.70
68746;SHT31;73143;45.456;11.064;2024-01-15T14:21:45;8.44;68.80
68746;SHT31;73143;45.456;11.064;2024-01-15T14:24:22;8.42;68.99
68746;SHT31;73143;45.456;11.064;2024-01-15T14:27:00;8.39;69.30
68746;SHT31;73143;45.456;11.064;2024-01-15T14:29:37;8.38;69.62
68746;SHT31;73143;45.456;11.064;2024-01-15T14:32:14;8.36;69.73
68746;SHT31;73143;45.456;11.064;2024-01-15T14:34:51;8.35;69.84
68746;SHT31;73143;45.456;11.064;2024-01-15T14:37:29;8.34;69.94
68746;SHT31;73143;45.456;11.064;2024-01-15T14:40:08;8.33;69.99
68746;SHT31;73143;45.456;11.064;2024-01-15T14:42:47;8.33;69.98
68746;SHT31;73143;45.456;11.064;2024-01-15T14:45:23;8.30;69.93
68746;SHT31;73143;45.456;11.064;2024-01-15T14:48:01;8.26;70.00
68746;SHT31;73143;45.456;11.064;2024-01-15T14:50:38;8.24;70.08
68746;SHT31;73143;45.456;11.064;2024-01-15T14:53:14;8.21;69.98
68746;SHT31;73143;45.456;11.064;2024-01-15T14:55:53;8.19;70.01
68746;SHT31;73143;45.456;11.064;2024-01-15T14:58:31;8.16;70.09
68746;SHT31;73143;45.456;11.064;2024-01-15T15:01:08;8.12;70.22
68746;SHT31;73143;45.456;11.064;2024-01-15T15:03:46;8.07;70.36
68746;SHT31;73143;45.456;11.064;2024-01-15T15:06:23;8.04;70.53
68746;SHT31;73143;45.456;11.064;2024-01-15T15:09:00;7.99;70.62
68746;SHT31;73143;45.456;11.064;2024-01-15T15:11:38;7.95;70.85
68746;SHT31;73143;45.456;11.064;2024-01-15T15:14:15;7.90;71.08
68746;SHT31;73143;45.456;11.064;2024-01-15T15:16:52;7.85;71.34
68746;SHT31;73143;45.456;11.064;2024-01-15T15:19:29;7.82;71.45
68746;SHT31;73143;45.456;11.064;2024-01-15T15:22:06;7.78;71.63
68746;SHT31;73143;45.456;11.064;2024-01-15T15:24:42;7.75;71.81
68746;SHT31;73143;45.456;11.064;2024-01-15T15:27:19;7.73;71.93
68746;SHT31;73143;45.456;11.064;2024-01-15T15:29:56;7.68;72.06
68746;SHT31;73143;45.456;11.064;2024-01-15T15:32:33;7.66;72.24
68746;SHT31;73143;45.456;11.064;2024-01-15T15:35:10;7.60;72.37
68746;SHT31;73143;45.456;11.064;2024-01-15T15:37:47;7.54;72.52
68746;SHT31;73143;45.456;11.064;2024-01-15T15:40:24;7.50;72.70
68746;SHT31;73143;45.456;11.064;2024-01-15T15:43:02;7.47;72.89
68746;SHT31;73143;45.456;11.064;2024-01-15T15:45:39;7.42;72.94
68746;SHT31;73143;45.456;11.064;2024-01-15T15:48:16;7.37;73.05
68746;SHT31;73143;45.456;11.064;2024-01-15T15:50:53;7.34;73.38
68746;SHT31;73143;45.456;11.064;2024-01-15T15:53:32;7.32;73.54
68746;SHT31;73143;45.456;11.064;2024-01-15T15:56:09;7.29;73.58
68746;SHT31;73143;45.456;11.064;2024-01-15T15:58:47;7.30;73.60
68746;SHT31;73143;45.456;11.064;2024-01-15T16:01:24;7.31;73.69
68746;SHT31;73143;45.456;11.064;2024-01-15T16:04:00;7.28;73.65
68746;SHT31;73143;45.456;11.064;2024-01-15T16:06:39;7.24;73.58
68746;SHT31;73143;45.456;11.064;2024-01-15T16:09:16;7.18;73.62
68746;SHT31;73143;45.456;11.064;2024-01-15T16:11:53;7.16;73.66
68746;SHT31;73143;45.456;11.064;2024-01-15T16:14:30;7.10;73.82
68746;SHT31;73143;45.456;11.064;2024-01-15T16:17:08;7.00;74.16
68746;SHT31;73143;45.456;11.064;2024-01-15T16:20:05;6.96;74.29
68746;SHT31;73143;45.456;11.064;2024-01-15T16:23:05;6.92;74.06
68746;SHT31;73143;45.456;11.064;2024-01-15T16:26:03;6.80;73.62
68746;SHT31;73143;45.456;11.064;2024-01-15T16:28:41;6.69;73.53
68746;SHT31;73143;45.456;11.064;2024-01-15T16:31:18;6.58;73.46
68746;SHT31;73143;45.456;11.064;2024-01-15T16:33:55;6.48;73.44
68746;SHT31;73143;45.456;11.064;2024-01-15T16:36:33;6.34;73.53
68746;SHT31;73143;45.456;11.064;2024-01-15T16:39:11;6.24;73.72
68746;SHT31;73143;45.456;11.064;2024-01-15T16:41:48;6.14;73.77
68746;SHT31;73143;45.456;11.064;2024-01-15T16:44:24;6.07;73.68
68746;SHT31;73143;45.456;11.064;2024-01-15T16:47:02;6.00;73.85
68746;SHT31;73143;45.456;11.064;2024-01-15T16:49:40;5.95;74.06